Terminal Aerodrome Forecast
Issued by NWS La Crosse, WI

Home | Current Version | Previous Version | Text Only | Print | Product List | Glossary On
Versions: 1 2 3 4 5 6 7 8 9 10 11 12 13 14 15 16 17 18 19 20 21 22 23
000
FTUS43 KARX 060520
TAFRST
TAF
KRST 060520Z 0606/0706 17013KT 6SM HZ BKN120
     FM061100 17014KT 2SM -TSRA BR BKN030CB
     FM061400 21013KT 4SM -SHRA BR OVC012
     FM062000 34013KT 4SM -TSRA BR OVC012CB
     FM070300 35008KT P6SM SCT012=

USA.gov is the U.S. government's official web portal to all federal, state and local government web resources and services.